sensor_id;sensor_type;location;lat;lon;timestamp;P1;durP1;ratioP1;P2;durP2;ratioP2
24425;SDS011;12611;44.446;26.000;2023-03-01T00:01:23;22.33;;;11.33;;
24425;SDS011;12611;44.446;26.000;2023-03-01T00:03:53;22.87;;;10.87;;
24425;SDS011;12611;44.446;26.000;2023-03-01T00:06:22;25.90;;;11.50;;
24425;SDS011;12611;44.446;26.000;2023-03-01T00:08:51;21.57;;;11.23;;
24425;SDS011;12611;44.446;26.000;2023-03-01T00:11:21;22.30;;;12.03;;
24425;SDS011;12611;44.446;26.000;2023-03-01T00:13:51;22.17;;;11.03;;
24425;SDS011;12611;44.446;26.000;2023-03-01T00:16:21;20.27;;;10.40;;
24425;SDS011;12611;44.446;26.000;2023-03-01T00:18:53;19.83;;;10.43;;
24425;SDS011;12611;44.446;26.000;2023-03-01T00:21:21;20.23;;;10.40;;
24425;SDS011;12611;44.446;26.000;2023-03-01T00:23:51;19.90;;;10.43;;
24425;SDS011;12611;44.446;26.000;2023-03-01T00:26:20;20.80;;;10.47;;
24425;SDS011;12611;44.446;26.000;2023-03-01T00:28:49;18.70;;;10.17;;
24425;SDS011;12611;44.446;26.000;2023-03-01T00:31:19;19.70;;;10.37;;
24425;SDS011;12611;44.446;26.000;2023-03-01T00:33:51;18.03;;;9.47;;
24425;SDS011;12611;44.446;26.000;2023-03-01T00:36:20;17.93;;;10.20;;
24425;SDS011;12611;44.446;26.000;2023-03-01T00:38:48;20.00;;;11.03;;
24425;SDS011;12611;44.446;26.000;2023-03-01T00:41:17;20.27;;;10.80;;
24425;SDS011;12611;44.446;26.000;2023-03-01T00:43:51;21.60;;;10.80;;
24425;SDS011;12611;44.446;26.000;2023-03-01T00:46:20;20.20;;;10.43;;
24425;SDS011;12611;44.446;26.000;2023-03-01T00:48:52;20.27;;;10.60;;
24425;SDS011;12611;44.446;26.000;2023-03-01T00:51:21;17.73;;;9.90;;
24425;SDS011;12611;44.446;26.000;2023-03-01T00:53:51;17.53;;;9.63;;
24425;SDS011;12611;44.446;26.000;2023-03-01T00:56:20;22.67;;;11.07;;
24425;SDS011;12611;44.446;26.000;2023-03-01T00:58:49;18.80;;;9.93;;
24425;SDS011;12611;44.446;26.000;2023-03-01T01:01:18;22.23;;;10.80;;
24425;SDS011;12611;44.446;26.000;2023-03-01T01:03:48;16.60;;;9.77;;
24425;SDS011;12611;44.446;26.000;2023-03-01T01:06:21;19.97;;;10.73;;
24425;SDS011;12611;44.446;26.000;2023-03-01T01:08:52;23.60;;;10.97;;
24425;SDS011;12611;44.446;26.000;2023-03-01T01:11:21;21.10;;;10.70;;
24425;SDS011;12611;44.446;26.000;2023-03-01T01:13:51;18.17;;;9.77;;
24425;SDS011;12611;44.446;26.000;2023-03-01T01:16:21;19.83;;;10.53;;
24425;SDS011;12611;44.446;26.000;2023-03-01T01:18:50;18.57;;;10.30;;
24425;SDS011;12611;44.446;26.000;2023-03-01T01:21:22;19.73;;;10.67;;
24425;SDS011;12611;44.446;26.000;2023-03-01T01:23:51;22.53;;;10.40;;
24425;SDS011;12611;44.446;26.000;2023-03-01T01:26:21;20.17;;;10.33;;
24425;SDS011;12611;44.446;26.000;2023-03-01T01:28:51;19.87;;;10.17;;
24425;SDS011;12611;44.446;26.000;2023-03-01T01:31:20;20.30;;;10.87;;
24425;SDS011;12611;44.446;26.000;2023-03-01T01:33:50;22.53;;;11.20;;
24425;SDS011;12611;44.446;26.000;2023-03-01T01:36:21;18.40;;;10.63;;
24425;SDS011;12611;44.446;26.000;2023-03-01T01:38:49;21.93;;;10.40;;
24425;SDS011;12611;44.446;26.000;2023-03-01T01:41:18;23.27;;;11.50;;
24425;SDS011;12611;44.446;26.000;2023-03-01T01:43:47;20.47;;;10.77;;
24425;SDS011;12611;44.446;26.000;2023-03-01T01:46:21;23.10;;;11.13;;
24425;SDS011;12611;44.446;26.000;2023-03-01T01:48:57;19.97;;;10.60;;
24425;SDS011;12611;44.446;26.000;2023-03-01T01:51:31;18.80;;;10.77;;
24425;SDS011;12611;44.446;26.000;2023-03-01T01:54:06;21.93;;;11.47;;
24425;SDS011;12611;44.446;26.000;2023-03-01T01:56:37;19.70;;;10.80;;
24425;SDS011;12611;44.446;26.000;2023-03-01T01:59:08;23.67;;;11.57;;
24425;SDS011;12611;44.446;26.000;2023-03-01T02:01:39;24.57;;;12.03;;
24425;SDS011;12611;44.446;26.000;2023-03-01T02:04:07;19.90;;;10.97;;
24425;SDS011;12611;44.446;26.000;2023-03-01T02:06:38;19.17;;;11.10;;
24425;SDS011;12611;44.446;26.000;2023-03-01T02:09:11;22.03;;;10.90;;
24425;SDS011;12611;44.446;26.000;2023-03-01T02:11:43;21.10;;;11.23;;
24425;SDS011;12611;44.446;26.000;2023-03-01T02:14:12;23.77;;;11.10;;
24425;SDS011;12611;44.446;26.000;2023-03-01T02:16:41;21.80;;;11.67;;
24425;SDS011;12611;44.446;26.000;2023-03-01T02:19:13;23.27;;;11.43;;
24425;SDS011;12611;44.446;26.000;2023-03-01T02:21:53;24.73;;;11.37;;
24425;SDS011;12611;44.446;26.000;2023-03-01T02:24:32;22.77;;;11.00;;
24425;SDS011;12611;44.446;26.000;2023-03-01T02:27:07;22.33;;;11.57;;
24425;SDS011;12611;44.446;26.000;2023-03-01T02:29:38;22.10;;;12.10;;
24425;SDS011;12611;44.446;26.000;2023-03-01T02:32:06;22.43;;;11.80;;
24425;SDS011;12611;44.446;26.000;2023-03-01T02:34:36;22.43;;;11.73;;
24425;SDS011;12611;44.446;26.000;2023-03-01T02:37:07;21.47;;;11.10;;
24425;SDS011;12611;44.446;26.000;2023-03-01T02:39:39;21.27;;;10.67;;
24425;SDS011;12611;44.446;26.000;2023-03-01T02:42:11;22.17;;;11.70;;
24425;SDS011;12611;44.446;26.000;2023-03-01T02:44:43;20.43;;;11.20;;
24425;SDS011;12611;44.446;26.000;2023-03-01T02:47:12;21.00;;;10.13;;
24425;SDS011;12611;44.446;26.000;2023-03-01T02:49:40;23.73;;;11.10;;
24425;SDS011;12611;44.446;26.000;2023-03-01T02:52:14;18.60;;;10.00;;
24425;SDS011;12611;44.446;26.000;2023-03-01T02:54:52;19.83;;;10.30;;
24425;SDS011;12611;44.446;26.000;2023-03-01T02:57:26;19.57;;;10.40;;
24425;SDS011;12611;44.446;26.000;2023-03-01T02:59:59;20.40;;;10.07;;
24425;SDS011;12611;44.446;26.000;2023-03-01T03:02:33;18.40;;;9.83;;
24425;SDS011;12611;44.446;26.000;2023-03-01T03:05:07;19.20;;;10.00;;
24425;SDS011;12611;44.446;26.000;2023-03-01T03:07:37;23.40;;;11.23;;
24425;SDS011;12611;44.446;26.000;2023-03-01T03:10:08;19.43;;;9.60;;
24425;SDS011;12611;44.446;26.000;2023-03-01T03:12:38;19.10;;;10.93;;
24425;SDS011;12611;44.446;26.000;2023-03-01T03:15:09;23.43;;;11.37;;
24425;SDS011;12611;44.446;26.000;2023-03-01T03:17:39;22.13;;;11.82;;
24425;SDS011;12611;44.446;26.000;2023-03-01T03:20:12;18.17;;;9.57;;
24425;SDS011;12611;44.446;26.000;2023-03-01T03:22:45;17.70;;;9.77;;
24425;SDS011;12611;44.446;26.000;2023-03-01T03:25:15;19.80;;;10.30;;
24425;SDS011;12611;44.446;26.000;2023-03-01T03:27:44;19.80;;;9.87;;
24425;SDS011;12611;44.446;26.000;2023-03-01T03:30:16;18.03;;;10.20;;
24425;SDS011;12611;44.446;26.000;2023-03-01T03:32:46;18.70;;;10.17;;
24425;SDS011;12611;44.446;26.000;2023-03-01T03:35:19;19.03;;;11.17;;
24425;SDS011;12611;44.446;26.000;2023-03-01T03:37:48;19.53;;;10.60;;
24425;SDS011;12611;44.446;26.000;2023-03-01T03:40:29;19.87;;;10.93;;
24425;SDS011;12611;44.446;26.000;2023-03-01T03:43:00;18.77;;;9.83;;
24425;SDS011;12611;44.446;26.000;2023-03-01T03:45:30;17.17;;;9.33;;
24425;SDS011;12611;44.446;26.000;2023-03-01T03:48:00;17.63;;;9.63;;
24425;SDS011;12611;44.446;26.000;2023-03-01T03:50:28;18.30;;;10.20;;
24425;SDS011;12611;44.446;26.000;2023-03-01T03:52:59;20.90;;;10.97;;
24425;SDS011;12611;44.446;26.000;2023-03-01T03:55:28;20.33;;;10.80;;
24425;SDS011;12611;44.446;26.000;2023-03-01T03:57:57;18.73;;;10.30;;
24425;SDS011;12611;44.446;26.000;2023-03-01T04:00:30;18.97;;;10.03;;
24425;SDS011;12611;44.446;26.000;2023-03-01T04:02:58;23.20;;;10.60;;
24425;SDS011;12611;44.446;26.000;2023-03-01T04:05:27;17.63;;;9.83;;
24425;SDS011;12611;44.446;26.000;2023-03-01T04:07:56;19.60;;;10.73;;
24425;SDS011;12611;44.446;26.000;2023-03-01T04:10:34;19.37;;;9.70;;
24425;SDS011;12611;44.446;26.000;2023-03-01T04:13:04;19.53;;;9.90;;
24425;SDS011;12611;44.446;26.000;2023-03-01T04:15:35;20.47;;;10.53;;
24425;SDS011;12611;44.446;26.000;2023-03-01T04:18:03;19.53;;;10.77;;
24425;SDS011;12611;44.446;26.000;2023-03-01T04:20:37;20.53;;;10.73;;
24425;SDS011;12611;44.446;26.000;2023-03-01T04:23:06;18.90;;;10.67;;
24425;SDS011;12611;44.446;26.000;2023-03-01T04:25:40;25.67;;;11.30;;
24425;SDS011;12611;44.446;26.000;2023-03-01T04:28:09;21.37;;;11.37;;
24425;SDS011;12611;44.446;26.000;2023-03-01T04:30:40;22.00;;;11.53;;
24425;SDS011;12611;44.446;26.000;2023-03-01T04:33:09;22.17;;;10.87;;
24425;SDS011;12611;44.446;26.000;2023-03-01T04:35:38;22.03;;;10.40;;
24425;SDS011;12611;44.446;26.000;2023-03-01T04:38:06;22.30;;;11.27;;
24425;SDS011;12611;44.446;26.000;2023-03-01T04:40:35;22.07;;;10.43;;
24425;SDS011;12611;44.446;26.000;2023-03-01T04:43:04;19.40;;;10.83;;
24425;SDS011;12611;44.446;26.000;2023-03-01T04:45:33;21.57;;;10.70;;
24425;SDS011;12611;44.446;26.000;2023-03-01T04:48:06;22.07;;;10.97;;
24425;SDS011;12611;44.446;26.000;2023-03-01T04:50:34;20.93;;;10.73;;
24425;SDS011;12611;44.446;26.000;2023-03-01T04:53:03;21.30;;;10.17;;
24425;SDS011;12611;44.446;26.000;2023-03-01T04:55:31;21.37;;;11.33;;
24425;SDS011;12611;44.446;26.000;2023-03-01T04:58:01;23.43;;;11.57;;
24425;SDS011;12611;44.446;26.000;2023-03-01T05:00:29;21.93;;;10.67;;
24425;SDS011;12611;44.446;26.000;2023-03-01T05:02:59;21.63;;;11.30;;
24425;SDS011;12611;44.446;26.000;2023-03-01T05:05:30;22.10;;;11.43;;
24425;SDS011;12611;44.446;26.000;2023-03-01T05:08:01;27.67;;;12.27;;
24425;SDS011;12611;44.446;26.000;2023-03-01T05:10:32;23.80;;;10.73;;
24425;SDS011;12611;44.446;26.000;2023-03-01T05:13:03;21.17;;;11.00;;
24425;SDS011;12611;44.446;26.000;2023-03-01T05:15:31;19.70;;;10.73;;
24425;SDS011;12611;44.446;26.000;2023-03-01T05:18:00;24.13;;;11.57;;
24425;SDS011;12611;44.446;26.000;2023-03-01T05:20:30;24.90;;;11.03;;
24425;SDS011;12611;44.446;26.000;2023-03-01T05:22:59;20.93;;;10.77;;
24425;SDS011;12611;44.446;26.000;2023-03-01T05:25:34;22.60;;;11.17;;
24425;SDS011;12611;44.446;26.000;2023-03-01T05:28:07;23.63;;;10.97;;
24425;SDS011;12611;44.446;26.000;2023-03-01T05:30:39;22.87;;;11.00;;
24425;SDS011;12611;44.446;26.000;2023-03-01T05:33:08;17.63;;;10.13;;
24425;SDS011;12611;44.446;26.000;2023-03-01T05:35:41;21.30;;;10.37;;
24425;SDS011;12611;44.446;26.000;2023-03-01T05:38:11;21.57;;;10.47;;
24425;SDS011;12611;44.446;26.000;2023-03-01T05:40:41;26.07;;;11.20;;
24425;SDS011;12611;44.446;26.000;2023-03-01T05:43:10;23.20;;;11.40;;
24425;SDS011;12611;44.446;26.000;2023-03-01T05:45:39;21.60;;;11.23;;
24425;SDS011;12611;44.446;26.000;2023-03-01T05:48:09;21.77;;;10.83;;
24425;SDS011;12611;44.446;26.000;2023-03-01T05:50:39;25.53;;;12.17;;
24425;SDS011;12611;44.446;26.000;2023-03-01T05:53:11;22.47;;;11.40;;
24425;SDS011;12611;44.446;26.000;2023-03-01T05:55:41;23.83;;;12.00;;
24425;SDS011;12611;44.446;26.000;2023-03-01T05:58:10;23.30;;;11.40;;
24425;SDS011;12611;44.446;26.000;2023-03-01T06:00:42;24.23;;;10.73;;
24425;SDS011;12611;44.446;26.000;2023-03-01T06:03:11;21.23;;;11.30;;
24425;SDS011;12611;44.446;26.000;2023-03-01T06:05:42;21.30;;;12.00;;
24425;SDS011;12611;44.446;26.000;2023-03-01T06:08:11;22.63;;;13.18;;
24425;SDS011;12611;44.446;26.000;2023-03-01T06:10:40;22.40;;;11.87;;
24425;SDS011;12611;44.446;26.000;2023-03-01T06:13:09;21.07;;;11.73;;
24425;SDS011;12611;44.446;26.000;2023-03-01T06:15:37;21.37;;;11.43;;
24425;SDS011;12611;44.446;26.000;2023-03-01T06:18:06;21.33;;;10.97;;
24425;SDS011;12611;44.446;26.000;2023-03-01T06:20:34;25.50;;;10.93;;
24425;SDS011;12611;44.446;26.000;2023-03-01T06:23:04;22.00;;;11.43;;
24425;SDS011;12611;44.446;26.000;2023-03-01T06:25:35;23.50;;;11.50;;
24425;SDS011;12611;44.446;26.000;2023-03-01T06:28:03;22.77;;;12.33;;
24425;SDS011;12611;44.446;26.000;2023-03-01T06:30:31;25.10;;;12.37;;
24425;SDS011;12611;44.446;26.000;2023-03-01T06:33:00;28.70;;;12.20;;
24425;SDS011;12611;44.446;26.000;2023-03-01T06:35:30;21.43;;;11.50;;
24425;SDS011;12611;44.446;26.000;2023-03-01T06:37:59;24.13;;;11.87;;
24425;SDS011;12611;44.446;26.000;2023-03-01T06:40:31;20.73;;;11.80;;
24425;SDS011;12611;44.446;26.000;2023-03-01T06:43:01;21.93;;;11.17;;
24425;SDS011;12611;44.446;26.000;2023-03-01T06:45:30;27.97;;;12.87;;
24425;SDS011;12611;44.446;26.000;2023-03-01T06:48:02;27.13;;;13.73;;
24425;SDS011;12611;44.446;26.000;2023-03-01T06:50:32;35.10;;;15.90;;
24425;SDS011;12611;44.446;26.000;2023-03-01T06:53:01;32.40;;;13.93;;
24425;SDS011;12611;44.446;26.000;2023-03-01T06:55:31;31.00;;;14.87;;
24425;SDS011;12611;44.446;26.000;2023-03-01T06:58:00;28.37;;;14.50;;
24425;SDS011;12611;44.446;26.000;2023-03-01T07:00:30;27.17;;;13.43;;
24425;SDS011;12611;44.446;26.000;2023-03-01T07:03:00;31.03;;;14.10;;
24425;SDS011;12611;44.446;26.000;2023-03-01T07:05:29;34.17;;;14.47;;
24425;SDS011;12611;44.446;26.000;2023-03-01T07:07:58;33.00;;;15.23;;
24425;SDS011;12611;44.446;26.000;2023-03-01T07:10:26;32.80;;;15.63;;
24425;SDS011;12611;44.446;26.000;2023-03-01T07:12:59;29.70;;;14.93;;
24425;SDS011;12611;44.446;26.000;2023-03-01T07:15:28;24.83;;;13.30;;
24425;SDS011;12611;44.446;26.000;2023-03-01T07:17:56;25.80;;;12.83;;
24425;SDS011;12611;44.446;26.000;2023-03-01T07:20:25;27.63;;;13.80;;
24425;SDS011;12611;44.446;26.000;2023-03-01T07:22:53;36.00;;;15.03;;
24425;SDS011;12611;44.446;26.000;2023-03-01T07:25:22;29.73;;;14.97;;
24425;SDS011;12611;44.446;26.000;2023-03-01T07:27:51;30.00;;;13.43;;
24425;SDS011;12611;44.446;26.000;2023-03-01T07:30:21;23.07;;;12.30;;
24425;SDS011;12611;44.446;26.000;2023-03-01T07:32:52;26.53;;;13.47;;
24425;SDS011;12611;44.446;26.000;2023-03-01T07:35:21;28.37;;;12.97;;
24425;SDS011;12611;44.446;26.000;2023-03-01T07:37:52;30.07;;;13.97;;
24425;SDS011;12611;44.446;26.000;2023-03-01T07:40:20;28.70;;;14.17;;
24425;SDS011;12611;44.446;26.000;2023-03-01T07:42:51;23.20;;;13.20;;
24425;SDS011;12611;44.446;26.000;2023-03-01T07:45:25;26.60;;;13.43;;
24425;SDS011;12611;44.446;26.000;2023-03-01T07:47:54;26.57;;;14.63;;
24425;SDS011;12611;44.446;26.000;2023-03-01T07:50:23;26.47;;;13.97;;
24425;SDS011;12611;44.446;26.000;2023-03-01T07:52:51;28.20;;;14.47;;
24425;SDS011;12611;44.446;26.000;2023-03-01T07:55:19;24.93;;;13.73;;
24425;SDS011;12611;44.446;26.000;2023-03-01T07:57:48;26.63;;;13.83;;
24425;SDS011;12611;44.446;26.000;2023-03-01T08:00:16;27.63;;;13.97;;
24425;SDS011;12611;44.446;26.000;2023-03-01T08:02:46;22.20;;;12.53;;
24425;SDS011;12611;44.446;26.000;2023-03-01T08:05:15;29.10;;;13.47;;
24425;SDS011;12611;44.446;26.000;2023-03-01T08:07:44;25.97;;;13.70;;
24425;SDS011;12611;44.446;26.000;2023-03-01T08:10:13;28.10;;;14.00;;
24425;SDS011;12611;44.446;26.000;2023-03-01T08:12:41;34.10;;;15.17;;
24425;SDS011;12611;44.446;26.000;2023-03-01T08:15:10;35.40;;;16.13;;
24425;SDS011;12611;44.446;26.000;2023-03-01T08:17:39;31.60;;;15.63;;
24425;SDS011;12611;44.446;26.000;2023-03-01T08:20:10;29.10;;;14.00;;
24425;SDS011;12611;44.446;26.000;2023-03-01T08:22:39;28.97;;;15.03;;
24425;SDS011;12611;44.446;26.000;2023-03-01T08:25:07;28.77;;;14.43;;
24425;SDS011;12611;44.446;26.000;2023-03-01T08:27:36;24.53;;;12.63;;
24425;SDS011;12611;44.446;26.000;2023-03-01T08:30:05;27.10;;;13.57;;
24425;SDS011;12611;44.446;26.000;2023-03-01T08:32:37;26.90;;;13.87;;
24425;SDS011;12611;44.446;26.000;2023-03-01T08:35:07;27.20;;;14.83;;
24425;SDS011;12611;44.446;26.000;2023-03-01T08:37:38;32.77;;;15.97;;
24425;SDS011;12611;44.446;26.000;2023-03-01T08:40:07;29.07;;;13.77;;
24425;SDS011;12611;44.446;26.000;2023-03-01T08:42:36;24.47;;;12.20;;
24425;SDS011;12611;44.446;26.000;2023-03-01T08:45:05;25.53;;;13.23;;
24425;SDS011;12611;44.446;26.000;2023-03-01T08:47:34;24.03;;;13.07;;
24425;SDS011;12611;44.446;26.000;2023-03-01T08:50:03;27.40;;;13.60;;
24425;SDS011;12611;44.446;26.000;2023-03-01T08:52:32;25.30;;;13.80;;
24425;SDS011;12611;44.446;26.000;2023-03-01T08:55:02;26.90;;;13.77;;
24425;SDS011;12611;44.446;26.000;2023-03-01T08:57:31;26.00;;;13.87;;
24425;SDS011;12611;44.446;26.000;2023-03-01T09:00:01;30.20;;;13.60;;
24425;SDS011;12611;44.446;26.000;2023-03-01T09:02:34;28.50;;;15.20;;
24425;SDS011;12611;44.446;26.000;2023-03-01T09:05:02;32.27;;;16.17;;
24425;SDS011;12611;44.446;26.000;2023-03-01T09:07:31;33.27;;;16.20;;
24425;SDS011;12611;44.446;26.000;2023-03-01T09:09:59;30.63;;;15.80;;
24425;SDS011;12611;44.446;26.000;2023-03-01T09:12:29;30.03;;;14.87;;
24425;SDS011;12611;44.446;26.000;2023-03-01T09:14:58;26.97;;;13.10;;
24425;SDS011;12611;44.446;26.000;2023-03-01T09:17:26;25.20;;;13.13;;
24425;SDS011;12611;44.446;26.000;2023-03-01T09:19:54;27.00;;;14.00;;
24425;SDS011;12611;44.446;26.000;2023-03-01T09:22:23;23.47;;;13.13;;
24425;SDS011;12611;44.446;26.000;2023-03-01T09:24:51;24.13;;;13.33;;
24425;SDS011;12611;44.446;26.000;2023-03-01T09:30:19;26.53;;;12.00;;
24425;SDS011;12611;44.446;26.000;2023-03-01T09:32:48;22.40;;;11.93;;
24425;SDS011;12611;44.446;26.000;2023-03-01T09:35:25;23.93;;;12.40;;
24425;SDS011;12611;44.446;26.000;2023-03-01T09:37:54;27.10;;;13.17;;
24425;SDS011;12611;44.446;26.000;2023-03-01T09:40:23;22.60;;;12.37;;
24425;SDS011;12611;44.446;26.000;2023-03-01T09:45:52;24.00;;;12.13;;
24425;SDS011;12611;44.446;26.000;2023-03-01T09:48:23;25.10;;;12.93;;
24425;SDS011;12611;44.446;26.000;2023-03-01T09:50:54;25.87;;;13.40;;
24425;SDS011;12611;44.446;26.000;2023-03-01T09:53:25;32.07;;;12.87;;
24425;SDS011;12611;44.446;26.000;2023-03-01T09:56:12;27.00;;;12.43;;
24425;SDS011;12611;44.446;26.000;2023-03-01T09:58:50;26.20;;;12.80;;
24425;SDS011;12611;44.446;26.000;2023-03-01T10:01:30;25.53;;;13.30;;
24425;SDS011;12611;44.446;26.000;2023-03-01T10:04:22;23.23;;;13.17;;
24425;SDS011;12611;44.446;26.000;2023-03-01T10:06:58;23.60;;;12.83;;
24425;SDS011;12611;44.446;26.000;2023-03-01T10:09:35;24.03;;;12.73;;
24425;SDS011;12611;44.446;26.000;2023-03-01T10:12:08;23.33;;;11.53;;
24425;SDS011;12611;44.446;26.000;2023-03-01T10:14:41;27.40;;;12.43;;
24425;SDS011;12611;44.446;26.000;2023-03-01T10:17:21;28.97;;;11.83;;
24425;SDS011;12611;44.446;26.000;2023-03-01T10:19:55;24.20;;;12.80;;
24425;SDS011;12611;44.446;26.000;2023-03-01T10:22:26;28.23;;;12.97;;
24425;SDS011;12611;44.446;26.000;2023-03-01T10:24:58;27.93;;;13.63;;
24425;SDS011;12611;44.446;26.000;2023-03-01T10:27:29;26.50;;;12.23;;
24425;SDS011;12611;44.446;26.000;2023-03-01T10:30:09;24.37;;;11.57;;
24425;SDS011;12611;44.446;26.000;2023-03-01T10:32:46;21.33;;;11.07;;
24425;SDS011;12611;44.446;26.000;2023-03-01T10:35:17;24.20;;;11.17;;
24425;SDS011;12611;44.446;26.000;2023-03-01T10:37:56;24.70;;;11.50;;
24425;SDS011;12611;44.446;26.000;2023-03-01T10:40:25;25.60;;;11.97;;
24425;SDS011;12611;44.446;26.000;2023-03-01T10:42:54;22.30;;;11.53;;
24425;SDS011;12611;44.446;26.000;2023-03-01T10:45:31;23.37;;;11.27;;
24425;SDS011;12611;44.446;26.000;2023-03-01T10:50:51;21.57;;;11.80;;
24425;SDS011;12611;44.446;26.000;2023-03-01T10:53:34;22.93;;;10.57;;
24425;SDS011;12611;44.446;26.000;2023-03-01T10:56:04;21.67;;;12.10;;
24425;SDS011;12611;44.446;26.000;2023-03-01T10:58:34;21.87;;;11.07;;
24425;SDS011;12611;44.446;26.000;2023-03-01T11:01:06;20.40;;;10.80;;
24425;SDS011;12611;44.446;26.000;2023-03-01T11:04:07;19.80;;;10.10;;
24425;SDS011;12611;44.446;26.000;2023-03-01T11:06:39;22.93;;;10.17;;
24425;SDS011;12611;44.446;26.000;2023-03-01T11:09:15;20.70;;;11.03;;
24425;SDS011;12611;44.446;26.000;2023-03-01T11:11:45;21.47;;;11.47;;
24425;SDS011;12611;44.446;26.000;2023-03-01T11:14:20;24.97;;;11.00;;
24425;SDS011;12611;44.446;26.000;2023-03-01T11:17:00;20.40;;;10.37;;
24425;SDS011;12611;44.446;26.000;2023-03-01T11:19:30;22.93;;;11.97;;
24425;SDS011;12611;44.446;26.000;2023-03-01T11:22:01;21.93;;;11.30;;
24425;SDS011;12611;44.446;26.000;2023-03-01T11:24:33;21.50;;;10.07;;
24425;SDS011;12611;44.446;26.000;2023-03-01T11:27:12;21.83;;;9.83;;
24425;SDS011;12611;44.446;26.000;2023-03-01T11:29:45;24.57;;;10.53;;
24425;SDS011;12611;44.446;26.000;2023-03-01T11:32:19;22.37;;;11.33;;
24425;SDS011;12611;44.446;26.000;2023-03-01T11:34:53;22.40;;;10.23;;
24425;SDS011;12611;44.446;26.000;2023-03-01T11:37:30;18.17;;;9.67;;
24425;SDS011;12611;44.446;26.000;2023-03-01T11:40:04;21.03;;;9.93;;
24425;SDS011;12611;44.446;26.000;2023-03-01T11:42:45;20.30;;;10.47;;
24425;SDS011;12611;44.446;26.000;2023-03-01T11:45:24;20.93;;;10.83;;
24425;SDS011;12611;44.446;26.000;2023-03-01T11:48:05;24.13;;;10.73;;
24425;SDS011;12611;44.446;26.000;2023-03-01T11:50:47;23.63;;;10.67;;
24425;SDS011;12611;44.446;26.000;2023-03-01T11:53:23;22.57;;;10.47;;
24425;SDS011;12611;44.446;26.000;2023-03-01T11:56:20;22.13;;;11.37;;
24425;SDS011;12611;44.446;26.000;2023-03-01T12:02:10;22.67;;;10.63;;
24425;SDS011;12611;44.446;26.000;2023-03-01T12:05:03;21.40;;;10.30;;
24425;SDS011;12611;44.446;26.000;2023-03-01T12:07:50;21.97;;;11.27;;
24425;SDS011;12611;44.446;26.000;2023-03-01T12:10:26;30.27;;;10.60;;
24425;SDS011;12611;44.446;26.000;2023-03-01T12:13:03;24.57;;;10.70;;
24425;SDS011;12611;44.446;26.000;2023-03-01T12:15:53;24.10;;;10.77;;
24425;SDS011;12611;44.446;26.000;2023-03-01T12:18:49;18.97;;;10.20;;
24425;SDS011;12611;44.446;26.000;2023-03-01T12:21:30;19.83;;;10.90;;
24425;SDS011;12611;44.446;26.000;2023-03-01T12:24:14;20.00;;;10.53;;
24425;SDS011;12611;44.446;26.000;2023-03-01T12:27:06;22.10;;;11.37;;
24425;SDS011;12611;44.446;26.000;2023-03-01T12:29:50;19.43;;;9.93;;
24425;SDS011;12611;44.446;26.000;2023-03-01T12:32:30;22.60;;;11.20;;
24425;SDS011;12611;44.446;26.000;2023-03-01T12:35:14;24.37;;;10.97;;
24425;SDS011;12611;44.446;26.000;2023-03-01T12:37:58;20.93;;;10.53;;
24425;SDS011;12611;44.446;26.000;2023-03-01T12:40:43;20.93;;;10.60;;
24425;SDS011;12611;44.446;26.000;2023-03-01T12:43:27;23.50;;;10.47;;
24425;SDS011;12611;44.446;26.000;2023-03-01T12:48:54;21.80;;;9.77;;
24425;SDS011;12611;44.446;26.000;2023-03-01T12:51:30;20.23;;;9.67;;
24425;SDS011;12611;44.446;26.000;2023-03-01T12:54:05;17.33;;;9.53;;
24425;SDS011;12611;44.446;26.000;2023-03-01T12:56:42;21.57;;;9.77;;
24425;SDS011;12611;44.446;26.000;2023-03-01T12:59:19;20.23;;;10.40;;
24425;SDS011;12611;44.446;26.000;2023-03-01T13:01:53;19.47;;;10.13;;
24425;SDS011;12611;44.446;26.000;2023-03-01T13:04:32;19.63;;;10.43;;
24425;SDS011;12611;44.446;26.000;2023-03-01T13:07:15;19.80;;;10.23;;
24425;SDS011;12611;44.446;26.000;2023-03-01T13:09:54;21.87;;;10.47;;
24425;SDS011;12611;44.446;26.000;2023-03-01T13:12:51;19.40;;;10.10;;
24425;SDS011;12611;44.446;26.000;2023-03-01T13:15:29;20.63;;;10.30;;
24425;SDS011;12611;44.446;26.000;2023-03-01T13:17:59;21.77;;;9.73;;
24425;SDS011;12611;44.446;26.000;2023-03-01T13:20:31;25.57;;;9.63;;
24425;SDS011;12611;44.446;26.000;2023-03-01T13:23:09;16.50;;;9.27;;
24425;SDS011;12611;44.446;26.000;2023-03-01T13:34:44;18.87;;;9.63;;
24425;SDS011;12611;44.446;26.000;2023-03-01T13:37:21;24.13;;;10.33;;
24425;SDS011;12611;44.446;26.000;2023-03-01T13:39:56;20.80;;;10.23;;
24425;SDS011;12611;44.446;26.000;2023-03-01T13:42:42;18.27;;;9.43;;
24425;SDS011;12611;44.446;26.000;2023-03-01T13:45:37;16.63;;;9.73;;
24425;SDS011;12611;44.446;26.000;2023-03-01T13:48:09;18.90;;;9.67;;
24425;SDS011;12611;44.446;26.000;2023-03-01T13:50:43;23.02;;;11.82;;
24425;SDS011;12611;44.446;26.000;2023-03-01T13:53:16;19.10;;;10.20;;
24425;SDS011;12611;44.446;26.000;2023-03-01T13:55:47;20.73;;;11.17;;
24425;SDS011;12611;44.446;26.000;2023-03-01T13:58:23;21.63;;;10.27;;
24425;SDS011;12611;44.446;26.000;2023-03-01T14:00:57;19.20;;;9.97;;
24425;SDS011;12611;44.446;26.000;2023-03-01T14:03:29;18.47;;;9.23;;
24425;SDS011;12611;44.446;26.000;2023-03-01T14:06:00;16.43;;;9.33;;
24425;SDS011;12611;44.446;26.000;2023-03-01T14:08:42;17.60;;;9.60;;
24425;SDS011;12611;44.446;26.000;2023-03-01T14:14:56;16.57;;;9.90;;
24425;SDS011;12611;44.446;26.000;2023-03-01T14:17:41;18.70;;;9.43;;
24425;SDS011;12611;44.446;26.000;2023-03-01T14:20:19;18.40;;;9.27;;
24425;SDS011;12611;44.446;26.000;2023-03-01T14:22:50;18.70;;;9.90;;
24425;SDS011;12611;44.446;26.000;2023-03-01T14:25:24;18.77;;;10.17;;
24425;SDS011;12611;44.446;26.000;2023-03-01T14:28:00;23.63;;;10.23;;
24425;SDS011;12611;44.446;26.000;2023-03-01T14:30:34;21.30;;;9.87;;
24425;SDS011;12611;44.446;26.000;2023-03-01T14:33:18;19.30;;;9.67;;
24425;SDS011;12611;44.446;26.000;2023-03-01T14:35:52;20.63;;;10.27;;
24425;SDS011;12611;44.446;26.000;2023-03-01T14:38:22;23.83;;;10.27;;
24425;SDS011;12611;44.446;26.000;2023-03-01T14:40:57;17.80;;;10.00;;
24425;SDS011;12611;44.446;26.000;2023-03-01T14:43:31;21.03;;;10.07;;
24425;SDS011;12611;44.446;26.000;2023-03-01T14:46:02;20.87;;;11.27;;
24425;SDS011;12611;44.446;26.000;2023-03-01T14:48:30;21.00;;;10.80;;
24425;SDS011;12611;44.446;26.000;2023-03-01T14:50:59;20.30;;;10.43;;
24425;SDS011;12611;44.446;26.000;2023-03-01T14:53:28;23.73;;;10.90;;
24425;SDS011;12611;44.446;26.000;2023-03-01T14:56:15;20.83;;;10.43;;
24425;SDS011;12611;44.446;26.000;2023-03-01T14:58:44;23.33;;;11.47;;
24425;SDS011;12611;44.446;26.000;2023-03-01T15:01:16;22.70;;;11.47;;
24425;SDS011;12611;44.446;26.000;2023-03-01T15:03:46;21.47;;;10.63;;
24425;SDS011;12611;44.446;26.000;2023-03-01T15:06:16;23.50;;;11.63;;
24425;SDS011;12611;44.446;26.000;2023-03-01T15:08:47;27.23;;;11.40;;